Skip Navigation LinksHome page > Weather > Current weather Skip Navigation Links

Current Weather

Eureka, Nunavut

For information only: do not use for flight planning or navigation.
Latest weather
Observation time Friday, June 23, 2017 3:00 PM CDT
Local time Friday, June 23, 2017 3:35 PM CDT
Flight conditions Visual Meteorological Conditions
Winds
Wind direction South (170°)
Wind speed 17 mph
Visibility 15 mi.
Sky condition
Ceiling unlimited
Cloud layer few clouds 2,000 ft.
Cloud layer few clouds 9,000 ft.
Temperature 46°F
Dewpoint 36°F
Altimeter 29.71 in.Hg
Derived measurements
Relative humidity 66%
Wind chill 39°F
Density altitude -458 ft.
Sea-level pressure 29.71 in.Hg
METAR CWEU 232000Z 17015KT 15SM FEW020 FEW090 08/02 A2971 RMK SC1AC1 SC TR AC TR SLP062

Settings

Location code

InnerDrive.Weather 4.0.6144.1 Release CLR 4.0.30319.36366
Copyright ©2015 Inner Drive Technology. All rights reserved. Portions Copyright ©1986-2015 David Braverman.

Find weather

Site navigation


Skip Navigation Links

Place info

Page info

PayPal - The safer, easier way to pay online!

Return home.

Copyright ©2017 Inner Drive Technology. Purveyors of fine, hand-crafted computer software. Page printed 2017-06-23T20:35:13 UTC.